• Join FlightAware (Why Join?)
  • Login
  • US Flag 
11:17PM EDT


 

Airport Tracker/Info


-or-


 

Live Flight TrackerFlight Track Log ✈ JIA2421 ✈ 31-Jul-2013 ✈ KDCA - KBHM

Flight Track Log - Related Links

Times and Time Zones

All times are in EDT time to prevent confusion due to time zone crossing. See the JIA2421 flight status page for this flight to view local times or setup timezone preferences in your user account.

Time Position Orientation Groundspeed Altitude Reporting Facility
EDT Latitude Longitude Course Direction KTS MPH feet Rate Location/Type
08:46AM 38.8833 -77.0667 322° Northwest 172 198 1,700  Level Potomac TRACON
08:47AM 38.9333 -77.1167 322° Northwest 216 249 4,200 2,340 Climbing Potomac TRACON
08:49AM 38.9856 -77.2258 302° West 219 252 8,800 2,160 Climbing Washington Center
08:50AM 38.9306 -77.2889 222° Southwest 187 215 10,700 1,740 Climbing Washington Center
08:51AM 38.8692 -77.3514 218° Southwest 237 273 12,400 1,140 Climbing Washington Center
08:52AM 38.7931 -77.4347 220° Southwest 281 323 13,000 600 Climbing Washington Center
08:53AM 38.7103 -77.5178 218° Southwest 343 395 13,600 780 Climbing Washington Center
08:54AM 38.6256 -77.6061 219° Southwest 382 440 14,600 1,020 Climbing Washington Center
08:55AM 38.5406 -77.6939 219° Southwest 394 453 15,700 1,020 Climbing Washington Center
08:56AM 38.4658 -77.8006 228° Southwest 399 459 16,700 960 Climbing Washington Center
08:57AM 38.4072 -77.9181 238° Southwest 399 459 17,700 600 Climbing Washington Center
08:58AM 38.3486 -78.0328 237° Southwest 399 459 18,000 480 Climbing Washington Center
08:59AM 38.2878 -78.1472 236° Southwest 394 453 18,700 480 Climbing Washington Center
09:00AM 38.2228 -78.2692 236° Southwest 399 459 19,000 480 Climbing Washington Center
09:01AM 38.1617 -78.3883 237° Southwest 410 472 19,700 840 Climbing Washington Center
09:02AM 38.1044 -78.5131 240° Southwest 410 472 20,700 660 Climbing Washington Center
09:03AM 38.0681 -78.6303 249° West 405 466 21,000 300 Climbing Washington Center
09:04AM 38.0253 -78.7578 247° West 400 460 21,400 480 Climbing Washington Center
09:05AM 37.9756 -78.8978 246° West 395 455 22,000 540 Climbing Washington Center
09:06AM 37.9322 -79.0275 247° West 395 455 22,500 480 Climbing Washington Center
09:07AM 37.8825 -79.1542 244° Southwest 395 455 23,000 480 Climbing Washington Center
09:08AM 37.8228 -79.2697 237° Southwest 395 455 23,500 600 Climbing Washington Center
09:09AM 37.7714 -79.3775 239° Southwest 400 460 24,200 780 Climbing Washington Center
09:10AM 37.7028 -79.5028 235° Southwest 400 460 25,100 840 Climbing Washington Center
09:11AM 37.6514 -79.6078 238° Southwest 395 455 26,000 900 Climbing Washington Center
09:12AM 37.5886 -79.7328 238° Southwest 395 455 27,000 780 Climbing Washington Center
09:13AM 37.5394 -79.8322 238° Southwest 389 448 27,600 600 Climbing Washington Center
09:14AM 37.4808 -79.9519 238° Southwest 395 455 28,300 660 Climbing Washington Center
09:15AM 37.4225 -80.0611 236° Southwest 395 455 29,000 660 Climbing Washington Center
09:16AM 37.3661 -80.1703 237° Southwest 390 449 29,600 540 Climbing Washington Center
09:17AM 37.2786 -80.3378 237° Southwest 387 445 30,300 480 Climbing Atlanta Center
09:18AM 37.2214 -80.4500 237° Southwest 382 440 30,800 300 Climbing Atlanta Center
09:19AM 37.1622 -80.5622 237° Southwest 382 440 31,000 60 Climbing Atlanta Center
09:20AM 37.1089 -80.6658 237° Southwest 387 445 31,000  Level Atlanta Center
09:21AM 37.0581 -80.7903 243° Southwest 398 458 31,000  Level Atlanta Center
09:22AM 37.0114 -80.9222 246° West 412 474 31,000 240 Level Atlanta Center
09:23AM 36.9586 -81.0672 246° West 412 474 31,500 600 Climbing Atlanta Center
09:24AM 36.9156 -81.1908 246° West 412 474 32,200 600 Climbing Atlanta Center
09:25AM 36.8683 -81.3144 245° Southwest 400 460 32,700 480 Climbing Atlanta Center
09:26AM 36.8253 -81.4378 246° West 395 455 33,200 480 Climbing Atlanta Center
09:27AM 36.7858 -81.5481 246° West 389 448 33,700 360 Climbing Atlanta Center
09:28AM 36.7464 -81.6658 247° West 377 434 34,000 120 Climbing Atlanta Center
09:29AM 36.6986 -81.7889 244° Southwest 384 442 34,000  Level Atlanta Center
09:30AM 36.6531 -81.9144 246° West 390 449 34,000  Level Atlanta Center
09:31AM 36.6011 -82.0503 245° Southwest 396 456 34,000  Level Atlanta Center
09:32AM 36.5553 -82.1806 246° West 407 468 34,000  Level Atlanta Center
09:33AM 36.5050 -82.3083 244° Southwest 407 468 34,000  Level Atlanta Center
09:34AM 36.4586 -82.4358 246° West 407 468 34,000  Level Atlanta Center
09:35AM 36.4103 -82.5631 245° Southwest 407 468 34,000  Level Atlanta Center
09:36AM 36.3639 -82.6956 247° West 407 468 34,000  Level Atlanta Center
09:37AM 36.3131 -82.8253 244° Southwest 407 468 34,000  Level Atlanta Center
09:38AM 36.2642 -82.9547 245° Southwest 412 474 34,000  Level Atlanta Center
09:39AM 36.2153 -83.0864 245° Southwest 417 480 34,000  Level Atlanta Center
09:40AM 36.1661 -83.2131 244° Southwest 417 480 34,000  Level Atlanta Center
09:41AM 36.1167 -83.3447 245° Southwest 422 486 34,000  Level Atlanta Center
09:42AM 36.0675 -83.4736 245° Southwest 422 486 34,000  Level Atlanta Center
09:43AM 36.0178 -83.6022 244° Southwest 422 486 34,000  Level Atlanta Center
09:44AM 35.9681 -83.7308 244° Southwest 422 486 34,000  Level Atlanta Center
09:45AM 35.9183 -83.8567 244° Southwest 417 480 34,000  Level Atlanta Center
09:46AM 35.8475 -83.9747 234° Southwest 422 486 34,000  Level Atlanta Center
09:47AM 35.7683 -84.0847 228° Southwest 427 491 34,000  Level Atlanta Center
09:48AM 35.6889 -84.1947 228° Southwest 432 497 34,000  Level Atlanta Center
09:49AM 35.6117 -84.3019 228° Southwest 432 497 34,000  Level Atlanta Center
09:50AM 35.5342 -84.4114 229° Southwest 437 503 34,000  Level Atlanta Center
09:51AM 35.4567 -84.5181 228° Southwest 437 503 34,000  Level Atlanta Center
09:52AM 35.3767 -84.6272 228° Southwest 437 503 34,000  Level Atlanta Center
09:53AM 35.3011 -84.7333 229° Southwest 432 497 34,000  Level Atlanta Center
09:54AM 35.2253 -84.8397 229° Southwest 432 497 34,000  Level Atlanta Center
09:55AM 35.1433 -84.9381 224° Southwest 424 488 34,000  Level Atlanta Center
09:56AM 35.0672 -85.0514 231° Southwest 424 488 34,000  Level Atlanta Center
09:57AM 34.9872 -85.1594 228° Southwest 430 495 34,000  Level Atlanta Center
09:58AM 34.9108 -85.2672 229° Southwest 430 495 34,000  Level Atlanta Center
09:59AM 34.8411 -85.3597 227° Southwest 430 495 34,000  Level Atlanta Center
10:00AM 34.7628 -85.4647 228° Southwest 430 495 34,000 -360 Level Atlanta Center
10:01AM 34.6842 -85.5747 229° Southwest 430 495 33,300 -1,680 Descending Atlanta Center
10:02AM 34.5994 -85.6842 227° Southwest 440 506 30,700 -2,580 Descending Atlanta Center
10:03AM 34.5228 -85.7936 230° Southwest 440 506 28,200 -2,580 Descending Atlanta Center
10:04AM 34.4461 -85.8853 225° Southwest 415 478 25,600 -2,580 Descending Atlanta Center
10:05AM 34.3739 -85.9817 228° Southwest 402 463 23,100 -2,460 Descending Atlanta Center
10:06AM 34.3036 -86.0706 226° Southwest 385 443 20,700 -2,400 Descending Atlanta Center
10:07AM 34.2372 -86.1644 229° Southwest 380 437 18,400 -2,160 Descending Atlanta Center
10:08AM 34.1689 -86.2481 225° Southwest 370 426 16,400 -2,100 Descending Atlanta Center
10:09AM 34.1047 -86.3317 227° Southwest 359 413 14,200 -1,740 Descending Atlanta Center
10:10AM 34.0447 -86.4156 229° Southwest 348 400 13,000 -1,200 Descending Atlanta Center
10:11AM 33.9869 -86.4889 226° Southwest 315 362 12,100 -960 Descending Atlanta Center
10:12AM 33.9228 -86.5697 226° Southwest 327 376 11,100 -780 Descending Atlanta Center
10:13AM 33.8647 -86.6431 226° Southwest 311 358 10,600 -1,080 Descending Atlanta Center
10:14AM 33.8111 -86.7139 228° Southwest 289 333 9,200 -1,620 Descending Atlanta Center
10:15AM 33.7639 -86.7750 227° Southwest 267 307 7,500 -1,620 Descending Atlanta Center
10:16AM 33.7164 -86.8408 229° Southwest 253 291 6,100 -1,620 Descending Atlanta Center
10:17AM 33.6647 -86.9092 228° Southwest 244 281 4,100 -1,200 Descending Atlanta Center
10:18AM 33.6133 -86.9647 222° Southwest 248 285 3,500 -780 Descending Atlanta Center
10:19AM 33.5589 -86.9778 191° South 224 258 2,600 -480 Descending Atlanta Center
10:20AM 33.4942 -86.9706 175° South 231 266 2,600  Level Atlanta Center
10:21AM 33.4575 -86.9419 147° Southeast 188 216 2,600  Level Atlanta Center
10:22AM 33.4900 -86.8883 54° Northeast 193 222 2,600 -420 Level Atlanta Center
10:23AM 33.5206 -86.8294 58° Northeast 179 206 1,800 -780 Descending Atlanta Center
10:24AM 33.5422 -86.7928 55° Northeast 140 161 1,100 -780 Descending Atlanta Center